Ansley, Nebraska
Current Conditions -  °F | °C
As of 1:53 PM on Sunday 23 Nov 2014 (Local Time) from KBBW Reporting Station
Clear Clear  
Wind Chill:   Ceiling: Unl
Heat Index:   Visibility: 10mi
Dew Point: -6°   Wind: 33mph
Humidity: 36%   Direction: 340°NNW
Pressure: 29.59"   Gusts: 40mph
Location:  41.29°N, 99.38°W
Report Text: KBBW 231953Z AUTO 34029G35KT 10SM CLR 09/M06 A2959 RMK AO2 PK WND 34038/1939 SLP021 T00891056 PWINO $
Loading
Personal Weather Stations






























Interactive Weather Map New forecast layout! Learn more

10-Day Weather Forecast

Advertisements
Track Severe Weather on mobile